createdAt,value
2018-04-25T00:01:42.021Z,2.00
2018-04-25T00:04:08.729Z,1.87
2018-04-25T00:06:34.686Z,2.10
2018-04-25T00:09:00.643Z,2.13
2018-04-25T00:11:27.354Z,2.67
2018-04-25T00:13:53.311Z,2.50
2018-04-25T00:16:19.474Z,2.13
2018-04-25T00:18:46.202Z,2.00
2018-04-25T00:21:12.181Z,2.60
2018-04-25T00:23:38.150Z,2.43
2018-04-25T00:26:04.155Z,2.33
2018-04-25T00:28:30.111Z,2.47
2018-04-25T00:30:56.072Z,2.07
2018-04-25T00:33:22.282Z,2.30
2018-04-25T00:35:48.297Z,2.30
2018-04-25T00:38:15.536Z,2.40
2018-04-25T00:40:41.732Z,2.67
2018-04-25T00:43:07.681Z,2.50
2018-04-25T00:45:33.691Z,2.27
2018-04-25T00:47:59.663Z,2.57
2018-04-25T00:50:25.614Z,2.57
2018-04-25T00:52:52.321Z,2.23
2018-04-25T00:55:18.366Z,2.67
2018-04-25T00:57:44.348Z,2.33
2018-04-25T01:00:11.047Z,2.67
2018-04-25T01:02:37.021Z,2.23
2018-04-25T01:05:02.973Z,2.60
2018-04-25T01:07:29.656Z,2.37
2018-04-25T01:09:55.639Z,2.47
2018-04-25T01:12:21.612Z,2.37
2018-04-25T01:14:47.606Z,2.60
2018-04-25T01:17:13.677Z,2.50
2018-04-25T01:19:39.635Z,2.30
2018-04-25T01:22:05.572Z,2.70
2018-04-25T01:24:31.843Z,2.43
2018-04-25T01:26:59.648Z,2.23
2018-04-25T01:29:25.608Z,2.37
2018-04-25T01:31:52.348Z,2.50
2018-04-25T01:34:21.984Z,2.10
2018-04-25T01:39:53.374Z,2.43
2018-04-25T01:45:46.048Z,2.60
2018-04-25T01:48:30.923Z,2.80
2018-04-25T01:50:56.754Z,2.43
2018-04-25T01:53:35.158Z,2.50
2018-04-25T01:56:13.654Z,2.73
2018-04-25T01:58:52.160Z,2.23
2018-04-25T02:01:18.775Z,3.30
2018-04-25T02:03:52.824Z,2.83
2018-04-25T02:06:18.821Z,2.80
2018-04-25T02:08:44.918Z,2.30
2018-04-25T02:11:10.999Z,2.73
2018-04-25T02:13:36.954Z,3.10
2018-04-25T02:16:02.942Z,2.83
2018-04-25T02:18:34.635Z,2.93
2018-04-25T02:21:00.596Z,2.60
2018-04-25T02:23:26.550Z,2.63
2018-04-25T02:25:53.287Z,2.53
2018-04-25T02:28:19.274Z,3.23
2018-04-25T02:30:45.275Z,2.87
2018-04-25T02:33:12.714Z,2.90
2018-04-25T02:35:38.676Z,4.00
2018-04-25T02:38:05.409Z,3.27
2018-04-25T02:40:31.362Z,2.60
2018-04-25T02:42:57.318Z,3.07
2018-04-25T02:45:24.022Z,2.80
2018-04-25T02:47:49.995Z,2.90
2018-04-25T02:50:16.755Z,2.63
2018-04-25T02:52:42.747Z,2.77
2018-04-25T02:55:08.759Z,2.73
2018-04-25T02:57:35.004Z,2.83
2018-04-25T03:00:00.976Z,2.87
2018-04-25T03:02:26.972Z,2.90
2018-04-25T03:04:52.923Z,2.90
2018-04-25T03:07:18.922Z,2.40
2018-04-25T03:09:44.907Z,3.00
2018-04-25T03:12:10.880Z,2.80
2018-04-25T03:14:37.579Z,2.77
2018-04-25T03:17:03.554Z,2.60
2018-04-25T03:19:29.905Z,3.40
2018-04-25T03:21:56.910Z,3.10
2018-04-25T03:24:22.899Z,2.93
2018-04-25T03:26:49.594Z,3.13
2018-04-25T03:29:15.559Z,3.10
2018-04-25T03:31:41.523Z,3.10
2018-04-25T03:34:08.208Z,3.17
2018-04-25T03:36:34.162Z,3.47
2018-04-25T03:39:00.402Z,3.47
2018-04-25T03:41:26.350Z,3.47
2018-04-25T03:43:52.298Z,3.23
2018-04-25T03:46:18.327Z,3.10
2018-04-25T03:48:44.294Z,3.57
2018-04-25T03:51:10.993Z,3.67
2018-04-25T03:53:37.126Z,3.60
2018-04-25T03:56:03.106Z,3.57
2018-04-25T03:58:29.047Z,3.53
2018-04-25T04:00:55.010Z,2.93
2018-04-25T04:03:20.959Z,3.63
2018-04-25T04:05:46.927Z,3.10
2018-04-25T04:08:12.907Z,3.70
2018-04-25T04:10:38.858Z,3.63
2018-04-25T04:13:04.880Z,3.13
2018-04-25T04:15:30.819Z,3.23
2018-04-25T04:17:56.775Z,3.33
2018-04-25T04:20:22.739Z,3.77
2018-04-25T04:22:48.716Z,3.27
2018-04-25T04:25:15.456Z,3.73
2018-04-25T04:27:42.160Z,3.90
2018-04-25T04:30:08.163Z,3.27
2018-04-25T04:32:34.120Z,3.37
2018-04-25T04:35:00.078Z,3.50
2018-04-25T04:37:26.322Z,3.30
2018-04-25T04:39:52.327Z,3.33
2018-04-25T04:42:18.294Z,3.40
2018-04-25T04:44:44.289Z,3.90
2018-04-25T04:47:10.245Z,3.83
2018-04-25T04:49:36.290Z,3.87
2018-04-25T04:52:02.202Z,3.67
2018-04-25T04:54:28.195Z,3.20
2018-04-25T04:56:54.149Z,3.47
2018-04-25T04:59:20.854Z,3.57
2018-04-25T05:01:46.827Z,3.77
2018-04-25T05:04:13.559Z,3.20
2018-04-25T05:06:39.558Z,3.47
2018-04-25T05:09:05.512Z,3.50
2018-04-25T05:11:31.471Z,3.33
2018-04-25T05:13:57.423Z,3.37
2018-04-25T05:16:24.119Z,3.00
2018-04-25T05:18:50.078Z,3.50
2018-04-25T05:21:16.062Z,3.50
2018-04-25T05:23:42.038Z,2.90
2018-04-25T05:26:08.006Z,3.20
2018-04-25T05:28:34.750Z,3.13
2018-04-25T05:31:00.699Z,4.00
2018-04-25T05:33:27.395Z,3.60
2018-04-25T05:35:53.378Z,4.53
2018-04-25T05:38:19.358Z,6.07
2018-04-25T05:40:45.330Z,4.77
2018-04-25T05:43:11.315Z,4.77
2018-04-25T05:45:37.313Z,4.77
2018-04-25T05:48:03.275Z,4.80
2018-04-25T05:50:29.999Z,5.20
2018-04-25T05:52:55.987Z,5.20
2018-04-25T05:55:21.951Z,4.63
2018-04-25T05:57:47.994Z,5.43
2018-04-25T06:00:13.969Z,5.57
2018-04-25T06:02:39.954Z,6.00
2018-04-25T06:05:05.918Z,5.87
2018-04-25T06:07:31.865Z,5.53
2018-04-25T06:09:58.562Z,5.33
2018-04-25T06:12:24.540Z,6.20
2018-04-25T06:14:50.494Z,5.67
2018-04-25T06:17:17.226Z,6.57
2018-04-25T06:19:43.579Z,6.20
2018-04-25T06:22:10.279Z,5.83
2018-04-25T06:24:36.243Z,5.43
2018-04-25T06:27:02.234Z,5.80
2018-04-25T06:29:28.184Z,5.07
2018-04-25T06:31:54.134Z,5.22
2018-04-25T06:34:20.492Z,5.15
2018-04-25T06:36:46.491Z,5.05
2018-04-25T06:39:12.481Z,5.35
2018-04-25T06:41:39.193Z,4.82
2018-04-25T06:44:05.283Z,5.07
2018-04-25T06:46:32.002Z,5.80
2018-04-25T06:48:57.979Z,5.78
2018-04-25T06:51:24.255Z,5.70
2018-04-25T06:53:50.225Z,5.35
2018-04-25T06:56:16.243Z,5.90
2018-04-25T06:58:42.214Z,6.07
2018-04-25T07:01:08.911Z,5.90
2018-04-25T07:03:34.875Z,5.80
2018-04-25T07:06:00.830Z,6.17
2018-04-25T07:08:27.522Z,6.17
2018-04-25T07:10:53.515Z,5.57
2018-04-25T07:13:19.469Z,6.80
2018-04-25T07:15:46.214Z,5.77
2018-04-25T07:18:13.252Z,6.43
2018-04-25T07:20:39.217Z,5.83
2018-04-25T07:23:05.910Z,5.70
2018-04-25T07:25:31.871Z,5.90
2018-04-25T07:27:57.823Z,6.30
2018-04-25T07:30:24.533Z,5.80
2018-04-25T07:32:50.511Z,5.10
2018-04-25T07:35:16.555Z,5.80
2018-04-25T07:37:43.287Z,5.23
2018-04-25T07:40:09.287Z,5.57
2018-04-25T07:42:35.254Z,5.77
2018-04-25T07:45:01.266Z,5.60
2018-04-25T07:47:27.235Z,5.20
2018-04-25T07:49:53.225Z,5.40
2018-04-25T07:52:20.032Z,5.77
2018-04-25T07:54:46.095Z,5.10
2018-04-25T07:57:12.067Z,5.47
2018-04-25T07:59:38.030Z,5.43
2018-04-25T08:02:04.014Z,5.60
2018-04-25T08:04:29.975Z,5.80
2018-04-25T08:06:55.934Z,5.30
2018-04-25T08:09:21.914Z,5.27
2018-04-25T08:11:47.902Z,5.77
2018-04-25T08:14:26.182Z,5.40
2018-04-25T08:17:04.611Z,5.30
2018-04-25T08:19:43.265Z,6.07
2018-04-25T08:22:09.219Z,5.60
2018-04-25T08:24:35.171Z,5.40
2018-04-25T08:27:01.163Z,5.20
2018-04-25T08:29:27.115Z,5.90
2018-04-25T08:31:53.066Z,5.87
2018-04-25T08:34:19.400Z,5.67
2018-04-25T08:36:45.391Z,5.60
2018-04-25T08:39:11.351Z,5.73
2018-04-25T08:41:37.335Z,6.07
2018-04-25T08:44:04.035Z,5.77
2018-04-25T08:46:30.022Z,6.20
2018-04-25T08:48:56.750Z,5.85
2018-04-25T08:51:22.698Z,5.20
2018-04-25T08:53:48.718Z,5.95
2018-04-25T08:56:14.765Z,5.80
2018-04-25T08:58:40.726Z,5.93
2018-04-25T09:01:07.422Z,5.70
2018-04-25T09:03:33.389Z,6.60
2018-04-25T09:06:00.090Z,6.37
2018-04-25T09:08:26.053Z,6.55
2018-04-25T09:10:52.063Z,6.93
2018-04-25T09:13:18.142Z,6.67
2018-04-25T09:15:44.947Z,6.13
2018-04-25T09:18:11.027Z,6.03
2018-04-25T09:20:36.975Z,6.27
2018-04-25T09:23:02.946Z,6.50
2018-04-25T09:25:28.903Z,6.10
2018-04-25T09:27:54.859Z,5.53
2018-04-25T09:30:20.828Z,5.53
2018-04-25T09:32:47.570Z,5.73
2018-04-25T09:35:15.031Z,5.07
2018-04-25T09:37:40.982Z,5.80
2018-04-25T09:40:06.959Z,6.57
2018-04-25T09:42:32.902Z,5.13
2018-04-25T09:44:58.855Z,6.13
2018-04-25T09:47:24.818Z,6.07
2018-04-25T09:49:50.775Z,5.70
2018-04-25T09:52:17.527Z,5.73
2018-04-25T09:54:44.651Z,5.87
2018-04-25T09:57:10.723Z,5.43
2018-04-25T09:59:37.427Z,5.57
2018-04-25T10:02:03.403Z,5.70
2018-04-25T10:04:30.099Z,5.60
2018-04-25T10:06:56.048Z,5.30
2018-04-25T10:09:22.026Z,5.13
2018-04-25T10:11:48.746Z,5.27
2018-04-25T10:14:14.720Z,5.67
2018-04-25T10:16:41.738Z,5.10
2018-04-25T10:19:07.958Z,5.20
2018-04-25T10:21:33.910Z,4.70
2018-04-25T10:24:00.058Z,3.20
2018-04-25T10:26:26.018Z,2.33
2018-04-25T10:28:52.074Z,2.03
2018-04-25T10:31:18.906Z,2.27
2018-04-25T10:33:45.243Z,2.40
2018-04-25T10:36:11.196Z,2.70
2018-04-25T10:38:37.897Z,2.50
2018-04-25T10:41:03.870Z,3.07
2018-04-25T10:43:29.818Z,4.50
2018-04-25T10:45:56.626Z,4.63
2018-04-25T10:48:22.578Z,5.13
2018-04-25T10:50:48.552Z,5.40
2018-04-25T10:53:15.290Z,5.57
2018-04-25T10:55:42.304Z,4.80
2018-04-25T10:58:08.263Z,4.93
2018-04-25T11:00:34.234Z,4.90
2018-04-25T11:03:00.925Z,5.07
2018-04-25T11:05:26.874Z,5.90
2018-04-25T11:07:53.019Z,5.33
2018-04-25T11:10:19.048Z,4.90
2018-04-25T11:12:45.054Z,4.97
2018-04-25T11:15:11.235Z,4.47
2018-04-25T11:17:37.303Z,4.50
2018-04-25T11:20:04.007Z,4.87
2018-04-25T11:22:37.001Z,4.63
2018-04-25T11:25:03.021Z,4.80
2018-04-25T11:27:28.970Z,4.53
2018-04-25T11:29:54.941Z,4.30
2018-04-25T11:32:20.902Z,4.47
2018-04-25T11:34:47.643Z,3.70
2018-04-25T11:37:15.092Z,3.37
2018-04-25T11:39:42.547Z,2.87
2018-04-25T11:42:08.519Z,2.60
2018-04-25T11:44:34.930Z,2.80
2018-04-25T11:47:00.882Z,2.50
2018-04-25T11:49:26.843Z,2.90
2018-04-25T11:51:52.817Z,2.60
2018-04-25T11:54:18.805Z,2.80
2018-04-25T11:56:45.578Z,2.80
2018-04-25T11:59:11.603Z,2.80
2018-04-25T12:01:38.299Z,3.00
2018-04-25T12:04:04.274Z,3.73
2018-04-25T12:06:30.244Z,2.93
2018-04-25T12:08:56.206Z,3.70
2018-04-25T12:11:22.163Z,2.83
2018-04-25T12:13:48.279Z,3.37
2018-04-25T12:16:14.304Z,3.43
2018-04-25T12:18:40.319Z,2.63
2018-04-25T12:21:06.285Z,2.67
2018-04-25T12:23:32.246Z,2.67
2018-04-25T12:25:59.030Z,2.47
2018-04-25T12:28:25.767Z,2.23
2018-04-25T12:30:51.782Z,2.27
2018-04-25T12:33:17.771Z,2.20
2018-04-25T12:35:43.824Z,2.30
2018-04-25T12:38:09.968Z,2.40
2018-04-25T12:40:35.922Z,2.00
2018-04-25T12:43:01.895Z,2.00
2018-04-25T12:45:28.591Z,1.80
2018-04-25T12:47:54.542Z,1.57
2018-04-25T12:50:20.510Z,1.70
2018-04-25T12:52:46.484Z,1.60
2018-04-25T12:55:12.859Z,1.57
2018-04-25T12:57:39.210Z,1.30
2018-04-25T13:00:05.187Z,1.30
2018-04-25T13:02:31.147Z,1.30
2018-04-25T13:04:57.319Z,1.20
2018-04-25T13:07:23.275Z,1.30
2018-04-25T13:09:49.247Z,1.17
2018-04-25T13:12:15.250Z,1.67
2018-04-25T13:14:41.966Z,1.13
2018-04-25T13:17:07.924Z,1.47
2018-04-25T13:19:34.051Z,1.30
2018-04-25T13:22:00.267Z,1.40
2018-04-25T13:24:26.225Z,1.57
2018-04-25T13:26:52.247Z,2.07
2018-04-25T13:29:18.233Z,1.70
2018-04-25T13:31:44.982Z,1.30
2018-04-25T13:34:11.911Z,1.60
2018-04-25T13:36:37.874Z,1.30
2018-04-25T13:39:04.571Z,1.77
2018-04-25T13:41:30.538Z,1.77
2018-04-25T13:43:56.502Z,1.70
2018-04-25T13:46:23.231Z,1.60
2018-04-25T13:48:49.264Z,1.57
2018-04-25T13:51:15.258Z,2.10
2018-04-25T13:53:41.516Z,1.50
2018-04-25T13:56:07.520Z,1.50
2018-04-25T13:58:33.490Z,1.80
2018-04-25T14:00:59.448Z,1.50
2018-04-25T14:03:26.218Z,1.90
2018-04-25T14:05:52.923Z,1.80
2018-04-25T14:08:18.895Z,1.80
2018-04-25T14:10:44.948Z,1.60
2018-04-25T14:13:11.646Z,1.60
2018-04-25T14:15:37.879Z,1.67
2018-04-25T14:18:03.856Z,2.03
2018-04-25T14:20:30.266Z,2.40
2018-04-25T14:22:56.226Z,2.10
2018-04-25T14:25:22.211Z,1.80
2018-04-25T14:27:48.364Z,1.63
2018-04-25T14:30:14.388Z,1.73
2018-04-25T14:32:40.351Z,1.77
2018-04-25T14:35:06.302Z,2.20
2018-04-25T14:37:32.254Z,2.20
2018-04-25T14:39:58.228Z,2.13
2018-04-25T14:42:24.177Z,2.27
2018-04-25T14:44:50.178Z,1.90
2018-04-25T14:47:17.688Z,2.03
2018-04-25T14:49:43.707Z,1.73
2018-04-25T14:52:09.659Z,1.63
2018-04-25T14:54:35.693Z,1.80
2018-04-25T14:57:02.343Z,1.93
2018-04-25T14:59:28.304Z,2.10
2018-04-25T15:01:54.656Z,2.17
2018-04-25T15:04:20.615Z,2.03
2018-04-25T15:06:46.572Z,2.00
2018-04-25T15:09:12.559Z,1.80
2018-04-25T15:11:38.514Z,1.67
2018-04-25T15:14:04.462Z,1.63
2018-04-25T15:16:31.166Z,1.73
2018-04-25T15:18:57.114Z,1.43
2018-04-25T15:21:23.103Z,1.70
2018-04-25T15:23:49.137Z,1.40
2018-04-25T15:26:15.891Z,1.30
2018-04-25T15:28:41.882Z,1.60
2018-04-25T15:31:07.832Z,1.50
2018-04-25T15:33:33.794Z,1.40
2018-04-25T15:35:59.763Z,1.60
2018-04-25T15:38:25.722Z,1.43
2018-04-25T15:40:51.673Z,1.60
2018-04-25T15:43:17.644Z,2.03
2018-04-25T15:45:43.626Z,1.73
2018-04-25T15:48:09.590Z,1.90
2018-04-25T15:50:36.307Z,1.80
2018-04-25T15:53:02.270Z,1.90
2018-04-25T15:55:28.235Z,2.10
2018-04-25T15:57:54.275Z,2.80
2018-04-25T16:00:20.570Z,1.93
2018-04-25T16:02:46.545Z,2.50
2018-04-25T16:05:12.516Z,2.20
2018-04-25T16:07:38.507Z,2.23
2018-04-25T16:10:05.214Z,1.93
2018-04-25T16:12:31.257Z,1.90
2018-04-25T16:14:57.212Z,2.33
2018-04-25T16:17:23.186Z,2.13
2018-04-25T16:19:49.163Z,2.13
2018-04-25T16:22:15.192Z,2.00
2018-04-25T16:24:41.159Z,2.33
2018-04-25T16:27:07.114Z,1.90
2018-04-25T16:29:33.863Z,2.13
2018-04-25T16:32:00.574Z,2.30
2018-04-25T16:34:26.533Z,1.97
2018-04-25T16:36:52.502Z,2.10
2018-04-25T16:39:18.529Z,1.87
2018-04-25T16:41:45.282Z,2.20
2018-04-25T16:44:11.247Z,2.43
2018-04-25T16:46:37.206Z,1.93
2018-04-25T16:49:03.172Z,2.53
2018-04-25T16:51:29.882Z,2.77
2018-04-25T16:53:55.950Z,2.90
2018-04-25T16:56:21.926Z,2.27
2018-04-25T16:58:47.915Z,2.43
2018-04-25T17:01:13.906Z,2.87
2018-04-25T17:03:39.887Z,2.70
2018-04-25T17:06:05.871Z,2.40
2018-04-25T17:08:31.819Z,2.40
2018-04-25T17:10:57.798Z,2.40
2018-04-25T17:13:23.755Z,2.53
2018-04-25T17:15:50.468Z,2.50
2018-04-25T17:18:17.193Z,2.73
2018-04-25T17:20:43.196Z,2.60
2018-04-25T17:23:09.906Z,2.77
2018-04-25T17:25:35.866Z,2.73
2018-04-25T17:28:02.137Z,2.67
2018-04-25T17:30:28.131Z,2.67
2018-04-25T17:32:54.097Z,2.70
2018-04-25T17:35:20.803Z,2.77
2018-04-25T17:37:46.779Z,2.50
2018-04-25T17:40:13.514Z,2.23
2018-04-25T17:42:39.468Z,2.23
2018-04-25T17:45:06.182Z,2.27
2018-04-25T17:47:32.138Z,1.90
2018-04-25T17:49:58.812Z,1.50
2018-04-25T17:52:24.802Z,1.30
2018-04-25T17:54:50.803Z,1.70
2018-04-25T17:57:16.856Z,1.27
2018-04-25T17:59:42.827Z,1.30
2018-04-25T18:02:09.530Z,1.17
2018-04-25T18:04:35.487Z,0.90
2018-04-25T18:07:01.463Z,0.70
2018-04-25T18:09:28.209Z,1.10
2018-04-25T18:11:54.186Z,1.10
2018-04-25T18:14:20.178Z,1.47
2018-04-25T18:16:46.214Z,1.50
2018-04-25T18:19:12.130Z,1.10
2018-04-25T18:21:38.143Z,1.40
2018-04-25T18:24:04.115Z,1.23
2018-04-25T18:26:30.087Z,0.90
2018-04-25T18:28:56.060Z,1.00
2018-04-25T18:31:22.258Z,1.47
2018-04-25T18:33:48.255Z,0.90
2018-04-25T18:36:14.439Z,1.10
2018-04-25T18:38:40.447Z,1.00
2018-04-25T18:41:07.169Z,1.40
2018-04-25T18:43:33.143Z,1.20
2018-04-25T18:45:59.867Z,1.17
2018-04-25T18:48:25.822Z,1.57
2018-04-25T18:50:51.800Z,1.90
2018-04-25T18:53:17.810Z,1.40
2018-04-25T18:55:44.848Z,1.27
2018-04-25T18:58:10.814Z,1.20
2018-04-25T19:00:36.795Z,1.50
2018-04-25T19:03:02.785Z,1.80
2018-04-25T19:05:28.735Z,1.70
2018-04-25T19:07:54.773Z,1.33
2018-04-25T19:10:20.955Z,1.37
2018-04-25T19:12:46.935Z,1.60
2018-04-25T19:15:13.302Z,1.20
2018-04-25T19:17:39.202Z,1.80
2018-04-25T19:20:05.917Z,1.93
2018-04-25T19:22:31.874Z,1.60
2018-04-25T19:24:58.600Z,1.27
2018-04-25T19:27:24.590Z,1.73
2018-04-25T19:29:50.570Z,1.63
2018-04-25T19:32:16.853Z,1.40
2018-04-25T19:34:42.814Z,1.20
2018-04-25T19:37:08.778Z,2.23
2018-04-25T19:39:34.738Z,1.70
2018-04-25T19:42:01.447Z,1.40
2018-04-25T19:44:27.418Z,1.30
2018-04-25T19:46:53.371Z,1.47
2018-04-25T19:49:20.083Z,1.30
2018-04-25T19:51:46.042Z,1.50
2018-04-25T19:54:12.012Z,1.37
2018-04-25T19:56:37.974Z,1.60
2018-04-25T19:59:03.980Z,1.03
2018-04-25T20:01:29.943Z,1.40
2018-04-25T20:03:55.916Z,1.30
2018-04-25T20:06:21.895Z,1.30
2018-04-25T20:08:47.883Z,1.33
2018-04-25T20:11:14.000Z,1.17
2018-04-25T20:13:39.989Z,1.50
2018-04-25T20:16:06.698Z,1.10
2018-04-25T20:18:32.703Z,1.40
2018-04-25T20:20:58.670Z,1.50
2018-04-25T20:23:24.807Z,1.80
2018-04-25T20:25:51.005Z,1.50
2018-04-25T20:28:17.084Z,1.40
2018-04-25T20:30:43.098Z,1.40
2018-04-25T20:33:09.095Z,1.00
2018-04-25T20:35:35.809Z,1.20
2018-04-25T20:38:01.806Z,1.00
2018-04-25T20:40:28.482Z,1.00
2018-04-25T20:42:54.861Z,0.77
2018-04-25T20:45:20.822Z,1.40
2018-04-25T20:47:47.558Z,2.80
2018-04-25T20:50:13.537Z,2.07
2018-04-25T20:52:39.490Z,1.40
2018-04-25T20:55:05.450Z,1.20
2018-04-25T20:57:31.411Z,1.80
2018-04-25T20:59:58.133Z,1.13
2018-04-25T21:02:24.181Z,1.60
2018-04-25T21:04:50.279Z,1.10
2018-04-25T21:07:17.039Z,1.00
2018-04-25T21:09:43.068Z,1.10
2018-04-25T21:12:09.078Z,1.23
2018-04-25T21:14:35.054Z,1.10
2018-04-25T21:17:01.025Z,1.30
2018-04-25T21:19:28.516Z,1.20
2018-04-25T21:21:54.990Z,1.40
2018-04-25T21:24:22.047Z,1.33
2018-04-25T21:26:48.108Z,1.33
2018-04-25T21:29:14.152Z,1.33
2018-04-25T21:31:40.124Z,1.20
2018-04-25T21:34:07.594Z,1.23
2018-04-25T21:36:35.031Z,1.30
2018-04-25T21:39:00.994Z,1.30
2018-04-25T21:41:28.432Z,1.03
2018-04-25T21:43:54.403Z,1.20
2018-04-25T21:46:21.115Z,1.03
2018-04-25T21:48:47.110Z,1.00
2018-04-25T21:51:13.890Z,1.07
2018-04-25T21:53:39.819Z,1.13
2018-04-25T21:56:05.775Z,1.10
2018-04-25T21:58:31.726Z,1.00
2018-04-25T22:00:57.951Z,1.10
2018-04-25T22:03:23.906Z,1.20
2018-04-25T22:05:49.879Z,1.20
2018-04-25T22:08:16.591Z,1.50
2018-04-25T22:10:42.554Z,1.20
2018-04-25T22:13:08.518Z,1.30
2018-04-25T22:15:41.391Z,1.00
2018-04-25T22:18:08.105Z,1.30
2018-04-25T22:20:34.071Z,1.20
2018-04-25T22:23:00.051Z,1.20
2018-04-25T22:25:26.003Z,1.07
2018-04-25T22:27:51.966Z,1.03
2018-04-25T22:30:17.950Z,1.37
2018-04-25T22:32:44.227Z,1.23
2018-04-25T22:35:10.215Z,0.80
2018-04-25T22:37:36.923Z,0.80
2018-04-25T22:40:02.889Z,1.13
2018-04-25T22:42:29.606Z,1.30
2018-04-25T22:44:55.567Z,1.10
2018-04-25T22:47:22.271Z,1.10
2018-04-25T22:49:48.315Z,1.33
2018-04-25T22:52:14.235Z,0.97
2018-04-25T22:54:40.206Z,1.20
2018-04-25T22:57:06.192Z,1.23
2018-04-25T22:59:32.151Z,1.00
2018-04-25T23:01:58.121Z,1.00
2018-04-25T23:04:24.071Z,0.90
2018-04-25T23:06:50.778Z,1.30
2018-04-25T23:09:16.768Z,1.03
2018-04-25T23:11:42.748Z,1.10
2018-04-25T23:14:08.707Z,1.53
2018-04-25T23:16:34.683Z,0.90
2018-04-25T23:19:01.380Z,0.80
2018-04-25T23:21:27.355Z,1.03
2018-04-25T23:23:54.059Z,1.10
2018-04-25T23:26:20.019Z,1.00
2018-04-25T23:28:46.017Z,0.70
2018-04-25T23:31:11.974Z,1.03
2018-04-25T23:33:38.467Z,0.73
2018-04-25T23:36:05.165Z,0.70
2018-04-25T23:38:31.116Z,1.00
2018-04-25T23:40:57.339Z,1.10
2018-04-25T23:43:23.302Z,0.70
2018-04-25T23:45:49.322Z,1.00
2018-04-25T23:48:15.279Z,0.70
2018-04-25T23:50:41.979Z,0.87
2018-04-25T23:53:07.943Z,1.07
2018-04-25T23:55:33.907Z,1.20
2018-04-25T23:57:59.859Z,0.73
